Huvudsida
METAR-TAF:

METAR-TAF

Flygplatser :

Inhambane, Moçambique

latitud: 23-52S, longitud: 035-23E, höjd: 14 m

Aktuellt väderrapport

Denna rapport gjordes för 2 timmar och 7 minuter sedan, klockan 10:00 UTC
Stilla vind
Temperatur 26°C
Fuktighet 58%
Tryck 1018 hPa
Sikt 10 km eller mer
Spridda moln på en höjd av 2000 ft

METAR: FQIN 181000Z 00000KT 9999 SCT020 26/17 Q1018

Tid: 14:07 (12:07 UTC)

Väderprognos

Denna rapport gjordes för 2 timmar och 7 minuter sedan, klockan 10:00 UTC
Prognos gäller från 18 kl. 12 UTC till 19 kl. 12 UTC
Vind 8 kt från ost/nordost
Sikt 10 km eller mer
Få moln på en höjd av 2000 ft
Blir
från 18 kl. 18 UTC till 18 kl. 20 UTC
Vind 3 kt varierande vindriktning
Blir
från 19 kl. 06 UTC till 19 kl. 08 UTC
Vind 8 kt från nord

TAF: FQIN 181000Z 1812/1912 07008KT 9999 FEW020 TX25/1813Z TN19/1902Z BECMG 1818/1820 VRB03KT BECMG 1906/1908 35008KT

Aktuella väderrapporter och prognoser från 4000 flygplatser (METAR- och TAF-rapporter).

De tillgängliga stationerna syns som gula och röda prickar på kartan.

För musen över prickarna för att se namnen på stationerna.

Klicka sedan för att få väderrapporter och prognoser.

För att ändra kartan: Klicka på de gröna knapparna med ett svart kors på för att zooma in; den gröna knappen med ett streck på för att zooma ut; eller på de gröna pilarna för angränsande kartor.


METAR-TAF: